Time;durP1;ratioP1;P1;durP2;ratioP2;P2;SDS_P1;SDS_P2;PMS_P1;PMS_P2;Temp;Humidity;BMP_temperature;BMP_pressure;BME280_temperature;BME280_humidity;BME280_pressure;Samples;Min_cycle;Max_cycle;Signal;HPM_P1;HPM_P2
2023/03/30 00:02:04;;;;;;;19.50;10.80;;;;;;;3.21;49.38;100488.73;103673;279;38851;-71
2023/03/30 00:04:41;;;;;;;23.30;11.40;;;;;;;3.20;49.45;100489.27;103665;279;38233;-71
2023/03/30 00:07:15;;;;;;;20.40;10.60;;;;;;;3.18;49.73;100487.38;103564;279;175714;-71
2023/03/30 00:09:49;;;;;;;20.60;10.70;;;;;;;3.15;49.88;100485.15;103662;279;39038;-70
2023/03/30 00:12:23;;;;;;;19.50;11.00;;;;;;;3.13;49.97;100489.81;103689;279;38785;-71
2023/03/30 00:14:57;;;;;;;20.00;10.70;;;;;;;3.12;50.10;100490.52;103679;279;39420;-68
2023/03/30 00:17:36;;;;;;;19.90;10.70;;;;;;;3.09;50.32;100493.45;103663;280;39572;-71
2023/03/30 00:20:15;;;;;;;17.30;11.00;;;;;;;3.07;50.61;100489.51;103631;280;38235;-69
2023/03/30 00:22:50;;;;;;;20.50;10.90;;;;;;;3.05;50.79;100481.08;103653;279;38235;-72
2023/03/30 00:25:25;;;;;;;21.00;10.40;;;;;;;3.04;50.84;100473.67;103662;280;38663;-71
2023/03/30 00:27:59;;;;;;;21.20;11.10;;;;;;;3.04;51.20;100469.86;103689;280;38866;-69
2023/03/30 00:30:33;;;;;;;17.00;9.70;;;;;;;3.03;51.29;100462.29;103635;280;39442;-69
2023/03/30 00:33:06;;;;;;;18.70;10.30;;;;;;;3.04;51.49;100459.70;103666;280;38852;-70
2023/03/30 00:35:40;;;;;;;16.90;10.30;;;;;;;3.05;51.47;100459.89;103656;280;38269;-71
2023/03/30 00:38:15;;;;;;;20.90;10.10;;;;;;;3.06;51.70;100455.39;103665;280;39409;-71
2023/03/30 00:40:54;;;;;;;17.50;10.30;;;;;;;3.07;51.80;100453.83;103534;280;175729;-73
2023/03/30 00:43:28;;;;;;;16.80;10.10;;;;;;;3.09;51.80;100451.23;103703;280;38567;-70
2023/03/30 00:46:02;;;;;;;19.50;10.40;;;;;;;3.10;52.06;100454.51;103654;280;38996;-70
2023/03/30 00:48:39;;;;;;;17.60;10.10;;;;;;;3.13;51.88;100454.14;103649;280;38435;-71
2023/03/30 00:51:14;;;;;;;18.50;9.80;;;;;;;3.15;52.28;100448.61;103553;280;38367;-70
2023/03/30 00:53:50;;;;;;;19.30;9.90;;;;;;;3.17;52.30;100450.16;103496;280;38865;-69
2023/03/30 00:56:27;;;;;;;19.40;9.80;;;;;;;3.18;52.34;100446.70;103668;280;38881;-70
2023/03/30 00:59:01;;;;;;;21.60;9.80;;;;;;;3.19;52.47;100446.52;103631;280;39841;-71
2023/03/30 01:01:37;;;;;;;20.60;10.80;;;;;;;3.21;52.40;100441.16;103652;279;38931;-69
2023/03/30 01:04:12;;;;;;;18.20;9.90;;;;;;;3.22;52.46;100436.50;103653;279;38370;-69
2023/03/30 01:06:48;;;;;;;19.50;9.70;;;;;;;3.23;52.63;100429.42;103532;280;41209;-68
2023/03/30 01:09:22;;;;;;;18.30;10.00;;;;;;;3.24;52.64;100420.27;103616;280;38506;-68
2023/03/30 01:11:57;;;;;;;18.10;10.30;;;;;;;3.25;52.83;100422.17;103651;280;38247;-68
2023/03/30 01:14:31;;;;;;;17.20;9.30;;;;;;;3.26;52.97;100418.53;103661;280;38538;-70
2023/03/30 01:17:12;;;;;;;19.20;9.50;;;;;;;3.26;52.95;100414.39;103699;279;40006;-71
2023/03/30 01:20:13;;;;;;;18.90;9.50;;;;;;;3.27;52.95;100413.02;103698;279;38720;-68
2023/03/30 01:23:11;;;;;;;17.40;9.30;;;;;;;3.28;53.04;100411.96;103690;279;39693;-71
2023/03/30 01:26:27;;;;;;;16.60;9.70;;;;;;;3.29;53.00;100414.38;103663;279;38630;-71
2023/03/30 01:29:02;;;;;;;17.00;9.50;;;;;;;3.30;53.12;100418.85;103611;279;39970;-69
2023/03/30 01:32:00;;;;;;;17.20;9.60;;;;;;;3.31;53.19;100416.09;103648;279;38870;-69
2023/03/30 01:35:17;;;;;;;15.90;9.00;;;;;;;3.31;53.25;100419.19;103321;279;481020;-69
2023/03/30 01:38:15;;;;;;;20.50;9.30;;;;;;;3.31;53.29;100418.67;103651;279;40439;-69
2023/03/30 01:40:52;;;;;;;18.60;9.90;;;;;;;3.31;53.53;100417.30;103642;279;38617;-68
2023/03/30 01:43:30;;;;;;;16.90;9.60;;;;;;;3.32;53.35;100412.46;103551;281;38992;-70
2023/03/30 01:46:09;;;;;;;18.90;9.30;;;;;;;3.32;53.55;100411.24;103558;279;189387;-70
2023/03/30 01:48:45;;;;;;;16.20;9.80;;;;;;;3.32;53.55;100410.56;103676;279;39693;-68
2023/03/30 01:51:23;;;;;;;19.70;10.30;;;;;;;3.33;53.56;100407.27;103661;279;38449;-73
2023/03/30 01:54:00;;;;;;;18.80;9.60;;;;;;;3.34;53.58;100407.61;103659;279;39463;-71
2023/03/30 01:56:36;;;;;;;19.30;10.40;;;;;;;3.34;53.73;100402.78;103706;279;38481;-72
2023/03/30 01:59:12;;;;;;;19.80;11.00;;;;;;;3.34;53.80;100399.68;103661;279;38772;-70
2023/03/30 02:01:49;;;;;;;19.10;10.10;;;;;;;3.33;53.89;100397.80;103664;279;38518;-72
2023/03/30 02:04:24;;;;;;;18.60;10.20;;;;;;;3.33;54.07;100398.14;103675;279;38260;-73
2023/03/30 02:07:00;;;;;;;19.60;11.00;;;;;;;3.32;54.13;100396.25;103697;279;38224;-70
2023/03/30 02:09:35;;;;;;;19.60;10.30;;;;;;;3.31;54.19;100395.91;103010;279;912318;-70
2023/03/30 02:12:09;;;;;;;17.80;10.00;;;;;;;3.31;54.14;100398.16;103698;279;39740;-69
2023/03/30 02:14:44;;;;;;;20.00;10.20;;;;;;;3.31;54.24;100398.50;103648;279;39990;-70
2023/03/30 02:17:26;;;;;;;17.80;9.80;;;;;;;3.30;54.28;100402.98;103690;279;38497;-68
2023/03/30 02:20:00;;;;;;;16.60;9.80;;;;;;;3.29;54.32;100397.99;103665;279;38835;-69
2023/03/30 02:22:34;;;;;;;18.50;10.00;;;;;;;3.28;54.50;100395.41;103697;279;38241;-73
2023/03/30 02:25:10;;;;;;;20.10;10.70;;;;;;;3.28;54.69;100395.77;103669;279;38239;-71
2023/03/30 02:27:44;;;;;;;20.90;10.50;;;;;;;3.26;54.68;100392.16;103652;279;38952;-73
2023/03/30 02:30:20;;;;;;;22.00;10.90;;;;;;;3.26;54.79;100394.23;103636;279;39396;-71
2023/03/30 02:32:56;;;;;;;19.60;11.00;;;;;;;3.26;54.86;100393.88;103671;279;39467;-71
2023/03/30 02:36:24;;;;;;;18.20;11.70;;;;;;;3.26;55.04;100388.55;103717;279;38721;-69
2023/03/30 02:39:12;;;;;;;19.80;11.60;;;;;;;3.25;55.27;100383.90;103373;279;38467;-71
2023/03/30 02:42:15;;;;;;;19.10;11.10;;;;;;;3.25;55.45;100378.03;103679;279;38252;-73
2023/03/30 02:44:53;;;;;;;19.50;10.60;;;;;;;3.24;55.58;100376.48;103660;279;38538;-71
2023/03/30 02:47:32;;;;;;;20.90;12.20;;;;;;;3.25;55.68;100374.23;103637;279;38252;-68
2023/03/30 02:50:09;;;;;;;18.30;11.50;;;;;;;3.25;55.77;100372.17;103542;269;38736;-71
2023/03/30 02:52:50;;;;;;;23.90;16.60;;;;;;;3.25;55.85;100374.92;103681;279;38680;-72
2023/03/30 02:55:27;;;;;;;27.20;16.40;;;;;;;3.25;55.95;100368.72;103660;279;38030;-72
2023/03/30 02:58:10;;;;;;;24.10;13.00;;;;;;;3.25;56.09;100369.07;103692;279;39648;-72
2023/03/30 03:00:47;;;;;;;18.10;11.70;;;;;;;3.26;56.03;100362.15;103637;270;38557;-71
2023/03/30 03:03:24;;;;;;;20.10;11.40;;;;;;;3.27;56.09;100364.92;103796;278;38549;-71
2023/03/30 03:06:01;;;;;;;18.50;10.30;;;;;;;3.27;56.21;100360.43;103800;278;38624;-71
2023/03/30 03:08:38;;;;;;;20.40;10.80;;;;;;;3.28;56.21;100361.62;103812;278;38934;-69
2023/03/30 03:11:13;;;;;;;18.10;10.40;;;;;;;3.29;56.23;100360.40;103805;278;39433;-71
2023/03/30 03:13:48;;;;;;;20.90;10.90;;;;;;;3.30;56.12;100361.78;103786;278;38243;-71
2023/03/30 03:16:23;;;;;;;19.10;10.30;;;;;;;3.32;56.25;100359.70;103751;279;38494;-70
2023/03/30 03:18:57;;;;;;;19.30;11.00;;;;;;;3.32;56.42;100347.98;103801;278;38971;-70
2023/03/30 03:21:32;;;;;;;21.80;10.40;;;;;;;3.32;56.50;100345.20;103776;278;39270;-71
2023/03/30 03:24:07;;;;;;;17.60;10.80;;;;;;;3.33;56.49;100341.41;103782;278;38827;-70
2023/03/30 03:26:41;;;;;;;20.30;11.10;;;;;;;3.34;56.54;100341.58;103774;278;38489;-70
2023/03/30 03:29:18;;;;;;;18.40;10.60;;;;;;;3.36;56.56;100339.67;103783;279;38378;-69
2023/03/30 03:31:52;;;;;;;20.00;10.60;;;;;;;3.37;56.65;100337.07;103816;278;38550;-71
2023/03/30 03:34:30;;;;;;;19.50;10.60;;;;;;;3.38;56.71;100333.09;103787;278;38556;-70
2023/03/30 03:37:04;;;;;;;24.90;11.00;;;;;;;3.39;56.84;100335.16;103782;278;38512;-71
2023/03/30 03:39:38;;;;;;;17.20;10.30;;;;;;;3.40;56.79;100333.24;103824;278;38873;-71
2023/03/30 03:42:12;;;;;;;19.30;11.10;;;;;;;3.41;56.76;100326.69;103770;278;38433;-71
2023/03/30 03:44:46;;;;;;;19.40;11.10;;;;;;;3.42;56.80;100327.38;103791;278;38989;-71
2023/03/30 03:47:21;;;;;;;15.70;9.90;;;;;;;3.42;56.76;100322.02;103767;278;38844;-74
2023/03/30 03:49:55;;;;;;;19.60;10.70;;;;;;;3.42;56.97;100322.70;103777;278;39096;-72
2023/03/30 03:52:29;;;;;;;17.10;10.30;;;;;;;3.43;57.06;100321.33;103802;278;39441;-72
2023/03/30 03:55:03;;;;;;;20.20;12.30;;;;;;;3.43;57.08;100318.05;103675;278;175676;-70
2023/03/30 03:57:37;;;;;;;18.10;10.20;;;;;;;3.43;57.06;100315.45;103801;278;39640;-71
2023/03/30 04:00:16;;;;;;;19.70;10.70;;;;;;;3.44;57.05;100312.00;103687;278;175677;-72
2023/03/30 04:02:50;;;;;;;20.50;10.20;;;;;;;3.44;57.25;100313.55;103804;278;39557;-73
2023/03/30 04:05:24;;;;;;;22.40;11.00;;;;;;;3.43;57.32;100314.42;103828;278;38974;-72
2023/03/30 04:07:58;;;;;;;20.40;11.20;;;;;;;3.44;57.36;100314.77;103684;278;175661;-69
2023/03/30 04:10:33;;;;;;;20.50;9.80;;;;;;;3.44;57.39;100314.75;103745;278;38233;-69
2023/03/30 04:13:08;;;;;;;21.90;11.50;;;;;;;3.44;57.46;100313.02;103785;278;39018;-71
2023/03/30 04:15:42;;;;;;;20.80;10.60;;;;;;;3.44;57.47;100314.23;103772;278;38313;-71
2023/03/30 04:18:17;;;;;;;20.40;11.40;;;;;;;3.44;57.51;100314.41;103808;278;38242;-71
2023/03/30 04:20:51;;;;;;;20.10;10.30;;;;;;;3.44;57.63;100311.98;103770;278;38425;-70
2023/03/30 04:23:29;;;;;;;20.20;11.00;;;;;;;3.45;57.55;100309.91;103797;278;38364;-72
2023/03/30 04:26:03;;;;;;;22.10;10.50;;;;;;;3.47;57.66;100313.52;103762;278;38388;-70
2023/03/30 04:28:39;;;;;;;18.40;10.90;;;;;;;3.48;57.72;100310.40;103780;278;39658;-69
2023/03/30 04:31:12;;;;;;;22.30;11.90;;;;;;;3.50;57.75;100307.46;103805;278;38557;-70
2023/03/30 04:33:49;;;;;;;19.90;11.30;;;;;;;3.51;57.84;100300.89;103838;278;38274;-69
2023/03/30 04:36:23;;;;;;;17.60;10.30;;;;;;;3.53;57.77;100295.69;103830;278;39656;-69
2023/03/30 04:39:00;;;;;;;20.20;10.90;;;;;;;3.55;57.86;100293.95;103746;278;38349;-71
2023/03/30 04:41:34;;;;;;;19.50;10.90;;;;;;;3.58;57.91;100290.63;103646;279;38152;-71
2023/03/30 04:44:09;;;;;;;21.10;11.00;;;;;;;3.61;58.03;100288.02;103771;279;38980;-69
2023/03/30 04:46:43;;;;;;;17.90;11.00;;;;;;;3.65;58.00;100285.05;103656;280;39420;-70
2023/03/30 04:49:17;;;;;;;23.60;11.30;;;;;;;3.69;57.97;100284.14;103801;278;38945;-71
2023/03/30 04:51:52;;;;;;;21.60;11.30;;;;;;;3.74;58.01;100284.77;103822;278;39634;-71
2023/03/30 04:54:26;;;;;;;20.20;11.10;;;;;;;3.80;58.15;100286.95;103773;278;38303;-69
2023/03/30 04:57:00;;;;;;;22.10;11.30;;;;;;;3.85;58.14;100282.92;103801;278;40033;-71
2023/03/30 04:59:34;;;;;;;20.50;11.70;;;;;;;3.91;58.16;100281.13;103778;278;38646;-73
2023/03/30 05:02:08;;;;;;;20.50;10.90;;;;;;;3.96;58.19;100280.70;103796;278;38505;-71
2023/03/30 05:04:43;;;;;;;22.40;12.20;;;;;;;4.02;58.18;100280.45;103138;278;913701;-70
2023/03/30 05:07:17;;;;;;;20.60;11.20;;;;;;;4.07;58.09;100276.42;103786;279;38916;-74
2023/03/30 05:09:55;;;;;;;20.20;11.30;;;;;;;4.13;58.04;100278.92;103775;278;38526;-73
2023/03/30 05:12:32;;;;;;;20.70;11.40;;;;;;;4.18;58.04;100272.98;103747;278;39412;-71
2023/03/30 05:15:18;;;;;;;19.30;10.80;;;;;;;4.23;57.97;100272.75;103833;278;39559;-71
2023/03/30 05:17:58;;;;;;;22.00;11.40;;;;;;;4.28;58.01;100265.95;103697;278;38274;-72
2023/03/30 05:20:32;;;;;;;22.80;11.40;;;;;;;4.31;58.13;100260.89;103771;278;39442;-73
2023/03/30 05:23:06;;;;;;;23.90;12.40;;;;;;;4.34;58.06;100263.79;103826;278;39739;-69
2023/03/30 05:25:45;;;;;;;22.90;12.10;;;;;;;4.38;58.00;100262.19;103777;279;37935;-69
2023/03/30 05:28:20;;;;;;;23.50;12.50;;;;;;;4.42;58.17;100261.26;103685;279;38906;-73
2023/03/30 05:30:58;;;;;;;20.30;11.60;;;;;;;4.44;58.12;100262.27;103804;278;38825;-70
2023/03/30 05:33:32;;;;;;;21.60;11.30;;;;;;;4.48;58.08;100257.20;103590;280;38402;-70
2023/03/30 05:36:07;;;;;;;20.40;11.80;;;;;;;4.52;58.14;100256.97;103832;278;38357;-70
2023/03/30 05:38:41;;;;;;;19.40;11.30;;;;;;;4.56;58.13;100255.01;103827;278;38298;-72
2023/03/30 05:41:18;;;;;;;22.10;11.80;;;;;;;4.61;57.98;100256.65;103701;278;39252;-70
2023/03/30 05:43:52;;;;;;;19.90;11.20;;;;;;;4.67;58.02;100257.77;103823;278;38272;-70
2023/03/30 05:46:26;;;;;;;18.20;10.80;;;;;;;4.72;58.05;100259.42;103761;278;38302;-73
2023/03/30 05:49:00;;;;;;;19.60;11.50;;;;;;;4.77;58.03;100260.72;103787;278;39457;-73
2023/03/30 05:51:35;;;;;;;21.20;12.10;;;;;;;4.85;57.95;100259.23;103650;280;40164;-73
2023/03/30 05:54:12;;;;;;;24.00;12.90;;;;;;;4.92;58.06;100256.85;103642;279;38841;-74
2023/03/30 05:56:49;;;;;;;24.80;11.90;;;;;;;5.00;58.01;100256.73;103837;278;38694;-71
2023/03/30 05:59:23;;;;;;;26.30;12.40;;;;;;;5.08;57.88;100252.27;103786;278;38933;-71
2023/03/30 06:01:57;;;;;;;22.40;12.80;;;;;;;5.15;57.80;100253.16;103789;279;38388;-73
2023/03/30 06:04:32;;;;;;;22.80;12.40;;;;;;;5.21;57.72;100254.27;103775;278;38262;-74
2023/03/30 06:07:07;;;;;;;21.10;12.80;;;;;;;5.25;57.62;100254.39;103658;279;39516;-76
2023/03/30 06:09:42;;;;;;;25.80;13.40;;;;;;;5.28;57.38;100255.54;103790;266;38237;-74
2023/03/30 06:12:16;;;;;;;25.70;12.40;;;;;;;5.30;57.44;100252.56;103821;278;39076;-68
2023/03/30 06:14:51;;;;;;;24.60;13.10;;;;;;;5.31;57.52;100251.32;103669;279;38734;-70
2023/03/30 06:17:26;;;;;;;22.90;13.00;;;;;;;5.33;57.41;100247.14;103673;280;39391;-69
2023/03/30 06:20:00;;;;;;;21.60;12.10;;;;;;;5.36;57.42;100248.29;103786;278;38397;-70
2023/03/30 06:22:35;;;;;;;23.00;13.40;;;;;;;5.39;57.53;100245.99;103817;278;39412;-70
2023/03/30 06:25:12;;;;;;;24.00;12.70;;;;;;;5.45;57.56;100241.55;103755;279;38545;-69
2023/03/30 06:27:49;;;;;;;23.40;12.90;;;;;;;5.56;57.71;100241.86;103768;278;38842;-72
2023/03/30 06:30:23;;;;;;;26.10;14.00;;;;;;;5.69;57.72;100244.02;103787;278;38369;-69
2023/03/30 06:32:58;;;;;;;26.40;14.80;;;;;;;5.81;57.55;100237.89;103710;278;175496;-69
2023/03/30 06:35:32;;;;;;;23.70;13.40;;;;;;;5.95;57.42;100239.52;103716;278;175052;-69
2023/03/30 06:38:08;;;;;;;24.50;13.70;;;;;;;6.08;57.13;100235.11;103779;278;39811;-73
2023/03/30 06:40:42;;;;;;;24.60;13.40;;;;;;;6.19;56.99;100235.20;103813;278;38773;-73
2023/03/30 06:43:20;;;;;;;27.70;14.50;;;;;;;6.31;56.85;100237.19;103808;266;39013;-74
2023/03/30 06:45:58;;;;;;;24.80;13.00;;;;;;;6.42;56.53;100236.26;103816;278;38280;-74
2023/03/30 06:48:32;;;;;;;23.30;13.20;;;;;;;6.52;56.51;100238.09;103778;278;38658;-72
2023/03/30 06:51:11;;;;;;;20.40;12.00;;;;;;;6.62;56.46;100233.86;103823;278;38240;-73
2023/03/30 06:53:45;;;;;;;25.80;14.20;;;;;;;6.72;56.48;100236.91;103791;278;39544;-72
2023/03/30 06:56:20;;;;;;;23.20;13.10;;;;;;;6.85;56.47;100232.77;103756;266;38858;-69
2023/03/30 06:58:55;;;;;;;20.90;12.30;;;;;;;6.93;55.91;100234.82;103668;278;172205;-70
2023/03/30 07:01:29;;;;;;;26.10;13.00;;;;;;;6.96;55.66;100231.11;103776;278;39582;-72
2023/03/30 07:04:04;;;;;;;23.90;13.60;;;;;;;6.99;55.51;100231.73;103811;279;38347;-70
2023/03/30 07:06:40;;;;;;;23.50;11.90;;;;;;;7.01;55.49;100226.50;103664;279;40050;-70
2023/03/30 07:09:15;;;;;;;24.50;12.90;;;;;;;7.02;55.35;100228.89;103781;278;39379;-72
2023/03/30 07:11:50;;;;;;;20.40;12.70;;;;;;;7.00;55.25;100229.45;103812;278;39403;-72
2023/03/30 07:14:24;;;;;;;18.90;12.10;;;;;;;6.99;55.40;100233.46;103765;278;38448;-70
2023/03/30 07:16:58;;;;;;;25.50;11.80;;;;;;;7.01;55.37;100230.31;103828;278;38279;-69
2023/03/30 07:19:33;;;;;;;22.20;12.30;;;;;;;7.04;55.46;100232.30;103666;279;172699;-71
2023/03/30 07:22:08;;;;;;;25.60;12.30;;;;;;;7.06;55.35;100226.19;103816;278;38386;-74
2023/03/30 07:24:43;;;;;;;24.00;13.00;;;;;;;7.09;55.28;100226.27;103792;278;38403;-74
2023/03/30 07:27:17;;;;;;;21.10;12.10;;;;;;;7.16;55.58;100229.56;103665;279;38441;-71
2023/03/30 07:29:52;;;;;;;26.90;12.20;;;;;;;7.26;55.69;100223.05;103791;279;39007;-70
2023/03/30 07:32:26;;;;;;;20.20;11.60;;;;;;;7.36;55.55;100213.77;103791;279;39213;-72
2023/03/30 07:35:00;;;;;;;19.10;11.70;;;;;;;7.44;55.23;100218.05;103772;278;39380;-69
2023/03/30 07:37:36;;;;;;;27.70;12.50;;;;;;;7.47;55.02;100220.05;103803;278;38694;-69
2023/03/30 07:40:12;;;;;;;22.70;13.30;;;;;;;7.46;54.83;100219.38;103799;278;38107;-69
2023/03/30 07:42:46;;;;;;;21.20;12.30;;;;;;;7.45;54.82;100214.71;103851;278;38236;-71
2023/03/30 07:45:21;;;;;;;20.60;12.30;;;;;;;7.46;54.78;100210.35;103114;278;922972;-75
2023/03/30 07:47:55;;;;;;;24.10;12.80;;;;;;;7.46;54.86;100211.05;103784;278;38251;-70
2023/03/30 07:50:29;;;;;;;20.90;12.30;;;;;;;7.45;54.90;100209.52;103697;279;190102;-74
2023/03/30 07:53:03;;;;;;;19.10;12.50;;;;;;;7.47;54.98;100211.35;103798;278;39532;-70
2023/03/30 07:55:37;;;;;;;23.20;13.30;;;;;;;7.50;54.97;100214.59;103776;278;38697;-71
2023/03/30 07:58:11;;;;;;;18.50;11.30;;;;;;;7.56;55.06;100215.99;103807;278;38345;-69
2023/03/30 08:00:47;;;;;;;25.00;12.90;;;;;;;7.61;54.83;100213.42;103622;278;39423;-69
2023/03/30 08:03:22;;;;;;;22.10;14.20;;;;;;;7.66;54.81;100214.32;103780;278;39419;-72
2023/03/30 08:06:03;;;;;;;23.90;12.50;;;;;;;7.71;54.87;100210.48;103815;278;38231;-71
2023/03/30 08:08:39;;;;;;;23.70;13.00;;;;;;;7.77;54.67;100208.60;103786;278;38527;-72
2023/03/30 08:11:15;;;;;;;21.80;12.70;;;;;;;7.84;54.79;100202.51;103771;278;38551;-71
2023/03/30 08:13:49;;;;;;;21.30;12.70;;;;;;;7.93;54.65;100198.77;103771;279;38218;-71
2023/03/30 08:16:23;;;;;;;21.60;12.20;;;;;;;8.01;54.74;100193.82;103814;278;38267;-71
2023/03/30 08:18:57;;;;;;;18.00;11.80;;;;;;;8.10;54.72;100189.20;103825;278;38373;-73
2023/03/30 08:21:32;;;;;;;19.80;12.10;;;;;;;8.22;54.78;100184.30;103829;278;38423;-70
2023/03/30 08:24:09;;;;;;;18.80;11.90;;;;;;;8.34;54.75;100184.47;103805;278;39718;-70
2023/03/30 08:26:43;;;;;;;17.80;11.90;;;;;;;8.44;54.49;100185.05;103789;278;39704;-73
2023/03/30 08:29:20;;;;;;;19.60;11.80;;;;;;;8.51;54.40;100185.50;103832;278;39434;-70
2023/03/30 08:31:56;;;;;;;19.20;11.80;;;;;;;8.55;54.22;100181.90;103868;278;39019;-72
2023/03/30 08:34:31;;;;;;;21.70;13.20;;;;;;;8.59;54.13;100180.23;103770;278;38237;-72
2023/03/30 08:37:05;;;;;;;22.60;12.60;;;;;;;8.60;54.03;100180.34;103730;278;38604;-73
2023/03/30 08:39:39;;;;;;;16.10;11.70;;;;;;;8.61;53.82;100180.66;103774;278;40128;-71
2023/03/30 08:42:36;;;;;;;16.90;10.90;;;;;;;8.55;53.57;100175.81;103818;278;38980;-74
2023/03/30 08:45:12;;;;;;;19.20;12.30;;;;;;;8.51;53.57;100174.20;103656;279;40410;-72
2023/03/30 08:47:48;;;;;;;18.10;11.60;;;;;;;8.52;54.02;100174.53;103692;278;175410;-71
2023/03/30 08:50:29;;;;;;;19.20;11.90;;;;;;;8.56;53.87;100166.39;103805;278;39436;-73
2023/03/30 08:53:03;;;;;;;20.60;11.80;;;;;;;8.56;53.88;100165.55;103766;278;40141;-73
2023/03/30 08:55:41;;;;;;;17.90;11.90;;;;;;;8.57;53.92;100161.69;103741;278;38866;-71
2023/03/30 08:58:19;;;;;;;20.40;11.80;;;;;;;8.58;53.98;100159.91;103192;278;911958;-73
2023/03/30 09:00:57;;;;;;;19.40;12.00;;;;;;;8.60;54.10;100154.27;103704;279;175390;-72
2023/03/30 09:03:35;;;;;;;18.70;12.30;;;;;;;8.62;54.00;100152.12;103796;278;38699;-70
2023/03/30 09:06:13;;;;;;;18.80;11.80;;;;;;;8.64;53.97;100149.27;103782;279;40403;-74
2023/03/30 09:08:47;;;;;;;21.40;12.40;;;;;;;8.61;53.92;100141.19;103769;278;38842;-72
2023/03/30 09:11:26;;;;;;;19.40;12.20;;;;;;;8.57;54.02;100140.81;103845;279;39687;-73
2023/03/30 09:14:01;;;;;;;22.70;12.90;;;;;;;8.56;54.23;100139.82;103786;279;38585;-73
2023/03/30 09:16:42;;;;;;;20.20;12.70;;;;;;;8.54;54.32;100136.23;103813;278;38418;-72
2023/03/30 09:19:19;;;;;;;22.20;13.00;;;;;;;8.49;54.28;100132.38;103769;278;39979;-72
2023/03/30 09:21:54;;;;;;;22.20;12.90;;;;;;;8.48;54.41;100132.58;103778;278;38238;-74
2023/03/30 09:24:29;;;;;;;21.00;12.80;;;;;;;8.50;54.42;100131.48;103742;278;38816;-74
2023/03/30 09:27:07;;;;;;;18.40;12.30;;;;;;;8.51;54.53;100126.58;103780;278;38291;-71
2023/03/30 09:29:44;;;;;;;19.60;12.50;;;;;;;8.57;54.64;100124.48;103790;271;38557;-71
2023/03/30 09:32:21;;;;;;;17.70;12.90;;;;;;;8.63;54.69;100115.91;103788;278;38627;-70
2023/03/30 09:34:59;;;;;;;21.40;13.10;;;;;;;8.72;54.76;100106.90;103464;278;480335;-70
2023/03/30 09:37:33;;;;;;;24.40;13.50;;;;;;;8.83;54.71;100105.31;103778;278;39713;-70
2023/03/30 09:40:20;;;;;;;27.40;15.90;;;;;;;8.89;54.54;100102.66;103806;278;38576;-72
2023/03/30 09:43:01;;;;;;;24.50;14.40;;;;;;;8.98;54.12;100103.92;103775;278;39433;-73
2023/03/30 09:45:36;;;;;;;23.30;14.30;;;;;;;9.01;53.98;100103.09;103813;278;38870;-70
2023/03/30 09:48:10;;;;;;;21.90;13.30;;;;;;;9.13;54.11;100100.40;103774;278;39889;-72
2023/03/30 09:50:45;;;;;;;21.00;13.50;;;;;;;9.30;54.05;100095.27;103782;278;38967;-72
2023/03/30 09:53:25;;;;;;;18.70;13.10;;;;;;;9.53;54.14;100095.27;103634;279;38472;-73
2023/03/30 09:56:00;;;;;;;;;;;;;;;9.78;53.78;100091.48;103810;278;39410;-74
2023/03/30 09:58:35;;;;;;;24.90;14.00;;;;;;;9.97;53.28;100088.32;103782;278;38264;-72
2023/03/30 10:01:12;;;;;;;20.60;13.50;;;;;;;10.16;53.05;100080.73;103800;278;38273;-71
2023/03/30 10:04:03;;;;;;;21.10;13.40;;;;;;;10.39;52.86;100071.99;103671;280;39431;-69
2023/03/30 10:06:39;;;;;;;19.40;13.40;;;;;;;10.71;52.58;100068.02;103794;278;38292;-73
2023/03/30 10:09:15;;;;;;;20.70;13.00;;;;;;;10.97;52.36;100061.64;103814;278;38889;-74
2023/03/30 10:11:50;;;;;;;21.80;12.90;;;;;;;11.31;52.52;100053.82;103786;278;38523;-74
2023/03/30 10:14:30;;;;;;;17.10;12.80;;;;;;;11.60;51.41;100047.04;103766;279;38548;-75
2023/03/30 10:17:05;;;;;;;19.30;12.90;;;;;;;11.80;50.74;100041.00;103852;278;39396;-72
2023/03/30 10:19:38;;;;;;;17.80;12.20;;;;;;;12.00;50.58;100038.14;103785;278;39434;-73
2023/03/30 10:22:21;;;;;;;19.90;12.90;;;;;;;12.17;50.04;100037.33;103791;278;40119;-74
2023/03/30 10:24:56;;;;;;;17.70;11.50;;;;;;;12.35;49.82;100036.56;103667;279;38260;-75
2023/03/30 10:27:45;;;;;;;16.60;11.30;;;;;;;12.55;49.55;100034.84;103810;278;38546;-72
2023/03/30 10:30:23;;;;;;;18.50;12.30;;;;;;;12.78;49.58;100032.42;103817;278;38266;-71
2023/03/30 10:32:59;;;;;;;14.20;10.80;;;;;;;13.06;49.81;100020.77;103763;278;38320;-74
2023/03/30 10:35:37;;;;;;;21.20;14.50;;;;;;;13.29;48.86;100022.73;103751;278;39692;-73
2023/03/30 10:38:12;;;;;;;31.10;18.00;;;;;;;13.33;47.94;100018.13;103765;278;38486;-73
2023/03/30 10:40:47;;;;;;;15.00;11.50;;;;;;;13.35;47.76;100016.05;103787;278;38906;-71
2023/03/30 10:43:25;;;;;;;16.00;11.10;;;;;;;13.48;48.12;100013.42;103770;278;38514;-73
2023/03/30 10:46:06;;;;;;;16.00;10.80;;;;;;;13.64;47.97;100010.06;103788;278;38333;-71
2023/03/30 10:48:49;;;;;;;18.00;12.80;;;;;;;13.90;47.86;100008.43;103754;278;40249;-72
2023/03/30 10:51:31;;;;;;;14.70;9.80;;;;;;;14.07;46.36;100006.52;103800;278;39422;-73
2023/03/30 10:54:10;;;;;;;15.50;9.90;;;;;;;14.18;46.57;99997.50;103771;279;38567;-73
2023/03/30 10:56:48;;;;;;;14.00;9.80;;;;;;;14.34;46.27;99993.02;103820;278;38624;-74
2023/03/30 11:00:01;;;;;;;12.80;9.60;;;;;;;14.46;46.41;99986.17;103760;278;38587;-75
2023/03/30 11:02:47;;;;;;;12.60;9.70;;;;;;;14.52;46.43;99986.35;103663;279;39061;-73
2023/03/30 11:05:24;;;;;;;13.30;8.80;;;;;;;14.57;45.89;99982.36;103686;278;38673;-74
2023/03/30 11:08:02;;;;;;;12.50;9.40;;;;;;;14.53;45.28;99982.77;103782;278;38412;-74
2023/03/30 11:10:38;;;;;;;13.90;9.20;;;;;;;14.43;45.97;99978.42;103760;278;38582;-75
2023/03/30 11:13:17;;;;;;;15.10;9.60;;;;;;;14.43;45.59;99977.20;103767;278;38241;-73
2023/03/30 11:15:52;;;;;;;;;;;;;;;14.39;45.93;99976.59;103684;278;38663;-77
2023/03/30 11:18:28;;;;;;;14.10;9.30;;;;;;;14.37;45.96;99972.83;103808;278;39412;-75
2023/03/30 11:21:06;;;;;;;12.50;9.10;;;;;;;14.37;46.04;99972.13;103826;278;39368;-75
2023/03/30 11:23:44;;;;;;;13.60;9.40;;;;;;;14.41;45.97;99967.13;103787;278;38418;-75
2023/03/30 11:26:20;;;;;;;18.80;10.20;;;;;;;14.47;45.98;99962.42;103864;278;39403;-75
2023/03/30 11:29:02;;;;;;;16.90;10.40;;;;;;;14.52;45.84;99962.54;103758;279;39418;-73
2023/03/30 11:31:56;;;;;;;12.10;9.60;;;;;;;14.54;45.88;99946.73;103793;267;38526;-74
2023/03/30 11:34:35;;;;;;;13.20;9.80;;;;;;;14.63;46.10;99939.00;103766;279;38713;-75
2023/03/30 11:37:14;;;;;;;15.10;9.70;;;;;;;14.68;45.76;99936.93;103807;279;39988;-73
2023/03/30 11:39:51;;;;;;;13.90;9.90;;;;;;;14.63;45.44;99929.70;103776;278;38601;-73
2023/03/30 11:42:27;;;;;;;13.00;9.50;;;;;;;14.56;45.11;99927.33;103776;278;38362;-73
2023/03/30 11:45:02;;;;;;;12.90;10.20;;;;;;;14.49;45.71;99920.03;103785;278;39652;-72
2023/03/30 11:47:57;;;;;;;12.00;8.70;;;;;;;14.53;45.75;99914.20;103585;278;174728;-72
2023/03/30 11:50:44;;;;;;;14.20;9.60;;;;;;;14.47;45.66;99911.70;103768;278;38570;-74
2023/03/30 11:53:27;;;;;;;14.30;9.40;;;;;;;14.41;45.65;99901.52;103696;279;38667;-71
2023/03/30 11:56:11;;;;;;;11.70;8.60;;;;;;;14.29;45.75;99895.95;103779;278;38328;-74
2023/03/30 11:58:47;;;;;;;11.90;8.90;;;;;;;14.21;46.10;99890.12;103754;278;39410;-72
2023/03/30 12:01:37;;;;;;;11.30;9.30;;;;;;;14.27;46.74;99890.79;103747;278;172382;-73
2023/03/30 12:04:15;;;;;;;12.80;9.30;;;;;;;14.41;46.61;99885.54;103829;278;38245;-72